createdAt,value
2023-05-25T00:01:09.526Z,1.33
2023-05-25T00:03:40.593Z,1.10
2023-05-25T00:06:08.049Z,0.40
2023-05-25T00:08:35.562Z,0.20
2023-05-25T00:11:02.915Z,0.20
2023-05-25T00:13:30.568Z,0.20
2023-05-25T00:15:58.041Z,0.20
2023-05-25T00:18:25.540Z,0.30
2023-05-25T00:20:55.777Z,0.20
2023-05-25T00:23:23.342Z,0.20
2023-05-25T00:25:50.754Z,0.20
2023-05-25T00:28:18.105Z,0.20
2023-05-25T00:30:45.537Z,0.20
2023-05-25T00:33:13.261Z,1.40
2023-05-25T00:35:42.904Z,0.87
2023-05-25T00:38:17.282Z,0.30
2023-05-25T00:40:44.674Z,0.20
2023-05-25T00:43:12.350Z,0.20
2023-05-25T00:45:39.977Z,0.30
2023-05-25T00:48:07.525Z,0.20
2023-05-25T00:50:39.076Z,0.20
2023-05-25T00:53:06.840Z,1.10
2023-05-25T00:55:34.676Z,0.20
2023-05-25T00:58:02.055Z,0.20
2023-05-25T01:00:29.665Z,0.20
2023-05-25T01:02:57.465Z,0.20
2023-05-25T01:05:25.364Z,1.10
2023-05-25T01:07:53.775Z,1.00
2023-05-25T01:10:21.381Z,0.20
2023-05-25T01:12:48.773Z,0.20
2023-05-25T01:15:16.193Z,0.20
2023-05-25T01:17:43.897Z,0.20
2023-05-25T01:20:12.170Z,0.20
2023-05-25T01:22:44.390Z,0.20
2023-05-25T01:25:16.491Z,0.20
2023-05-25T01:27:52.622Z,0.20
2023-05-25T01:30:20.069Z,0.20
2023-05-25T01:32:47.478Z,0.20
2023-05-25T01:35:14.912Z,0.20
2023-05-25T01:37:48.455Z,0.30
2023-05-25T01:40:16.013Z,0.20
2023-05-25T01:42:43.367Z,0.20
2023-05-25T01:45:11.469Z,0.20
2023-05-25T01:47:46.997Z,0.20
2023-05-25T01:50:20.709Z,0.20
2023-05-25T01:52:58.289Z,0.20
2023-05-25T01:55:27.133Z,0.20
2023-05-25T01:57:58.071Z,0.20
2023-05-25T02:00:31.524Z,0.20
2023-05-25T02:02:59.000Z,0.20
2023-05-25T02:05:28.063Z,0.30
2023-05-25T02:07:55.589Z,0.20
2023-05-25T02:10:23.409Z,0.20
2023-05-25T02:12:50.955Z,0.30
2023-05-25T02:15:19.069Z,0.20
2023-05-25T02:17:46.456Z,0.20
2023-05-25T02:20:14.251Z,0.30
2023-05-25T02:22:41.775Z,0.20
2023-05-25T02:25:09.731Z,0.20
2023-05-25T02:27:37.238Z,0.30
2023-05-25T02:30:04.758Z,0.20
2023-05-25T02:32:33.791Z,0.30
2023-05-25T02:35:01.458Z,0.60
2023-05-25T02:37:28.811Z,0.60
2023-05-25T02:39:56.232Z,0.60
2023-05-25T02:42:23.614Z,0.60
2023-05-25T02:44:51.318Z,0.50
2023-05-25T02:47:19.122Z,0.50
2023-05-25T02:49:46.634Z,0.60
2023-05-25T02:52:14.145Z,0.60
2023-05-25T02:54:42.114Z,0.60
2023-05-25T02:57:10.336Z,0.50
2023-05-25T02:59:37.907Z,0.50
2023-05-25T03:02:05.576Z,0.50
2023-05-25T03:04:34.418Z,0.50
2023-05-25T03:07:02.375Z,0.40
2023-05-25T03:09:30.340Z,0.50
2023-05-25T03:11:57.780Z,0.60
2023-05-25T03:14:25.289Z,0.60
2023-05-25T03:16:54.047Z,0.50
2023-05-25T03:19:22.089Z,0.37
2023-05-25T03:21:49.666Z,0.40
2023-05-25T03:24:17.133Z,0.50
2023-05-25T03:26:44.494Z,0.50
2023-05-25T03:29:11.832Z,0.40
2023-05-25T03:31:39.545Z,0.40
2023-05-25T03:34:07.144Z,0.50
2023-05-25T03:36:34.615Z,0.47
2023-05-25T03:39:02.057Z,0.47
2023-05-25T03:41:29.402Z,0.30
2023-05-25T03:43:56.762Z,0.50
2023-05-25T03:46:24.221Z,0.30
2023-05-25T03:48:51.579Z,0.30
2023-05-25T03:51:18.862Z,0.40
2023-05-25T03:53:46.463Z,0.43
2023-05-25T03:56:13.918Z,0.30
2023-05-25T03:58:41.230Z,0.50
2023-05-25T04:01:10.551Z,0.30
2023-05-25T04:03:38.140Z,0.50
2023-05-25T04:06:05.702Z,0.40
2023-05-25T04:08:34.117Z,0.50
2023-05-25T04:11:02.282Z,0.30
2023-05-25T04:13:29.665Z,0.30
2023-05-25T04:15:57.102Z,0.30
2023-05-25T04:18:24.442Z,0.30
2023-05-25T04:20:51.825Z,0.40
2023-05-25T04:23:21.392Z,0.30
2023-05-25T04:25:51.278Z,0.40
2023-05-25T04:28:19.013Z,0.40
2023-05-25T04:30:48.112Z,0.30
2023-05-25T04:33:15.422Z,0.30
2023-05-25T04:35:43.032Z,0.30
2023-05-25T04:38:12.670Z,0.40
2023-05-25T04:40:41.970Z,0.30
2023-05-25T04:43:11.364Z,0.30
2023-05-25T04:45:39.546Z,0.30
2023-05-25T04:48:07.558Z,0.30
2023-05-25T04:50:35.030Z,0.30
2023-05-25T04:53:02.411Z,0.40
2023-05-25T04:55:29.815Z,0.30
2023-05-25T04:57:57.214Z,0.30
2023-05-25T05:00:25.093Z,0.40
2023-05-25T05:02:52.760Z,0.30
2023-05-25T05:05:20.162Z,0.30
2023-05-25T05:07:47.817Z,0.40
2023-05-25T05:10:15.217Z,0.30
2023-05-25T05:12:42.619Z,0.30
2023-05-25T05:15:10.087Z,0.40
2023-05-25T05:17:37.627Z,0.30
2023-05-25T05:20:05.483Z,0.30
2023-05-25T05:22:33.872Z,0.30
2023-05-25T05:25:01.427Z,0.30
2023-05-25T05:27:28.843Z,0.30
2023-05-25T05:29:56.395Z,0.40
2023-05-25T05:32:23.814Z,0.40
2023-05-25T05:34:51.114Z,0.40
2023-05-25T05:37:18.565Z,0.40
2023-05-25T05:39:46.174Z,0.30
2023-05-25T05:42:13.646Z,0.40
2023-05-25T05:44:41.162Z,0.40
2023-05-25T05:47:08.556Z,0.30
2023-05-25T05:49:38.033Z,0.30
2023-05-25T05:52:05.658Z,0.30
2023-05-25T05:54:32.964Z,0.30
2023-05-25T05:57:01.479Z,0.40
2023-05-25T05:59:28.900Z,0.40
2023-05-25T06:01:56.270Z,0.47
2023-05-25T06:04:25.609Z,0.30
2023-05-25T06:06:53.059Z,0.30
2023-05-25T06:09:20.574Z,0.30
2023-05-25T06:11:48.114Z,0.30
2023-05-25T06:14:15.593Z,0.30
2023-05-25T06:16:43.849Z,0.30
2023-05-25T06:19:11.720Z,0.30
2023-05-25T06:21:39.188Z,0.30
2023-05-25T06:24:06.911Z,0.30
2023-05-25T06:26:34.325Z,0.30
2023-05-25T06:29:02.099Z,0.30
2023-05-25T06:31:29.532Z,0.50
2023-05-25T06:33:56.986Z,0.40
2023-05-25T06:36:24.382Z,0.30
2023-05-25T06:38:51.816Z,0.30
2023-05-25T06:41:19.896Z,0.40
2023-05-25T06:43:47.385Z,0.40
2023-05-25T06:46:18.468Z,0.30
2023-05-25T06:48:46.391Z,0.30
2023-05-25T06:51:14.063Z,0.30
2023-05-25T06:53:41.546Z,0.30
2023-05-25T06:56:08.886Z,0.30
2023-05-25T06:58:36.327Z,0.30
2023-05-25T07:01:03.853Z,0.30
2023-05-25T07:03:32.747Z,0.30
2023-05-25T07:06:00.312Z,0.30
2023-05-25T07:08:27.651Z,0.30
2023-05-25T07:10:55.096Z,0.30
2023-05-25T07:13:22.598Z,0.30
2023-05-25T07:15:50.211Z,0.40
2023-05-25T07:18:17.661Z,0.40
2023-05-25T07:20:45.142Z,0.50
2023-05-25T07:23:12.586Z,0.30
2023-05-25T07:25:39.913Z,0.30
2023-05-25T07:28:07.498Z,0.50
2023-05-25T07:30:35.080Z,0.40
2023-05-25T07:33:02.488Z,0.30
2023-05-25T07:35:30.141Z,0.40
2023-05-25T07:38:00.837Z,0.40
2023-05-25T07:40:28.356Z,0.40
2023-05-25T07:42:55.826Z,0.40
2023-05-25T07:45:23.240Z,0.40
2023-05-25T07:47:50.676Z,0.40
2023-05-25T07:50:18.143Z,0.40
2023-05-25T07:52:45.546Z,0.40
2023-05-25T07:55:13.184Z,0.50
2023-05-25T07:57:40.697Z,0.30
2023-05-25T08:00:08.535Z,0.30
2023-05-25T08:02:36.263Z,0.40
2023-05-25T08:05:06.236Z,0.40
2023-05-25T08:07:34.156Z,0.40
2023-05-25T08:10:01.552Z,0.60
2023-05-25T08:12:46.871Z,0.50
2023-05-25T08:15:16.814Z,0.50
2023-05-25T08:17:44.549Z,0.50
2023-05-25T08:20:12.490Z,0.50
2023-05-25T08:22:39.926Z,0.60
2023-05-25T08:25:08.271Z,0.60
2023-05-25T08:27:36.450Z,0.60
2023-05-25T08:30:06.274Z,0.50
2023-05-25T08:32:33.945Z,0.40
2023-05-25T08:35:02.187Z,0.20
2023-05-25T08:37:30.609Z,0.30
2023-05-25T08:39:59.455Z,0.20
2023-05-25T08:42:26.892Z,0.20
2023-05-25T08:44:54.218Z,0.20
2023-05-25T08:47:23.079Z,0.30
2023-05-25T08:49:51.516Z,0.30
2023-05-25T08:52:22.364Z,0.30
2023-05-25T08:54:50.326Z,0.20
2023-05-25T08:57:21.593Z,0.20
2023-05-25T08:59:53.215Z,0.20
2023-05-25T09:02:27.947Z,0.20
2023-05-25T09:04:55.944Z,0.30
2023-05-25T09:07:23.290Z,0.20
2023-05-25T09:09:50.703Z,0.20
2023-05-25T09:12:18.152Z,0.80
2023-05-25T09:14:45.963Z,0.80
2023-05-25T09:17:14.009Z,0.70
2023-05-25T09:19:41.552Z,0.80
2023-05-25T09:24:41.571Z,0.80
2023-05-25T09:27:11.883Z,0.60
2023-05-25T09:29:39.399Z,0.70
2023-05-25T09:32:07.113Z,0.60
2023-05-25T09:34:34.614Z,0.63
2023-05-25T09:37:05.566Z,0.80
2023-05-25T09:39:33.180Z,0.70
2023-05-25T09:42:02.015Z,0.60
2023-05-25T09:44:29.716Z,0.70
2023-05-25T09:46:57.155Z,0.70
2023-05-25T09:49:24.819Z,0.70
2023-05-25T09:51:52.413Z,0.80
2023-05-25T09:54:19.885Z,0.70
2023-05-25T09:56:47.309Z,0.70
2023-05-25T09:59:14.678Z,0.60
2023-05-25T10:01:44.072Z,0.60
2023-05-25T10:04:11.907Z,0.50
2023-05-25T10:06:40.231Z,0.40
2023-05-25T10:09:07.781Z,0.40
2023-05-25T10:11:36.460Z,0.30
2023-05-25T10:14:04.690Z,0.20
2023-05-25T10:16:32.230Z,0.30
2023-05-25T10:19:05.062Z,0.30
2023-05-25T10:21:32.668Z,0.20
2023-05-25T10:24:04.823Z,0.20
2023-05-25T10:26:32.896Z,0.20
2023-05-25T10:29:04.697Z,0.20
2023-05-25T10:31:34.290Z,0.20
2023-05-25T10:34:01.740Z,0.20
2023-05-25T10:36:30.396Z,0.30
2023-05-25T10:38:57.807Z,0.20
2023-05-25T10:41:25.166Z,0.30
2023-05-25T10:43:53.563Z,0.20
2023-05-25T10:46:21.218Z,0.20
2023-05-25T10:48:49.151Z,0.20
2023-05-25T10:51:16.565Z,0.20
2023-05-25T10:53:47.693Z,0.20
2023-05-25T10:56:15.283Z,0.20
2023-05-25T10:58:46.637Z,0.20
2023-05-25T11:01:14.811Z,0.20
2023-05-25T11:03:45.431Z,0.20
2023-05-25T11:06:13.837Z,0.20
2023-05-25T11:08:54.007Z,0.20
2023-05-25T11:11:22.694Z,0.20
2023-05-25T11:13:52.817Z,0.20
2023-05-25T11:16:34.675Z,0.20
2023-05-25T11:19:02.073Z,0.20
2023-05-25T11:21:32.563Z,0.22
2023-05-25T11:23:59.950Z,0.20
2023-05-25T11:26:28.952Z,0.20
2023-05-25T11:28:56.702Z,0.30
2023-05-25T11:31:37.777Z,0.20
2023-05-25T11:34:09.523Z,0.20
2023-05-25T11:36:37.079Z,0.20
2023-05-25T11:39:11.644Z,0.20
2023-05-25T11:41:49.803Z,0.20
2023-05-25T11:44:27.515Z,0.20
2023-05-25T11:46:57.795Z,0.20
2023-05-25T11:49:26.084Z,0.20
2023-05-25T11:51:54.204Z,0.20
2023-05-25T11:54:22.322Z,0.20
2023-05-25T11:56:49.781Z,0.20
2023-05-25T11:59:17.937Z,0.20
2023-05-25T12:01:45.564Z,0.20
2023-05-25T12:04:12.995Z,0.20
2023-05-25T12:06:40.559Z,0.20
2023-05-25T12:09:12.090Z,0.20
2023-05-25T12:11:39.462Z,0.20
2023-05-25T12:14:07.768Z,0.20
2023-05-25T12:16:39.096Z,0.20
2023-05-25T12:19:06.796Z,0.20
2023-05-25T12:21:34.251Z,0.20
2023-05-25T12:24:02.925Z,0.20
2023-05-25T12:26:30.338Z,0.20
2023-05-25T12:29:00.864Z,0.20
2023-05-25T12:31:31.811Z,0.30
2023-05-25T12:34:12.750Z,0.20
2023-05-25T12:36:40.291Z,0.20
2023-05-25T12:39:07.884Z,0.20
2023-05-25T12:41:55.005Z,0.20
2023-05-25T12:44:31.655Z,0.20
2023-05-25T12:47:23.482Z,0.20
2023-05-25T12:49:54.596Z,0.20
2023-05-25T12:52:40.852Z,0.30
2023-05-25T12:55:27.645Z,0.20
2023-05-25T12:57:55.804Z,0.20
2023-05-25T13:00:23.789Z,0.20
2023-05-25T13:02:51.556Z,0.20
2023-05-25T13:05:19.791Z,0.20
2023-05-25T13:07:47.302Z,0.20
2023-05-25T13:10:16.005Z,0.20
2023-05-25T13:12:43.732Z,0.20
2023-05-25T13:15:11.361Z,0.20
2023-05-25T13:17:38.827Z,0.20
2023-05-25T13:20:06.647Z,0.20
2023-05-25T13:22:34.096Z,0.20
2023-05-25T13:25:01.562Z,0.20
2023-05-25T13:27:30.245Z,0.20
2023-05-25T13:29:59.034Z,0.20
2023-05-25T13:32:26.527Z,0.20
2023-05-25T13:34:59.720Z,0.20
2023-05-25T13:37:29.857Z,0.20
2023-05-25T13:39:58.370Z,0.20
2023-05-25T13:42:25.943Z,0.20
2023-05-25T13:44:53.424Z,0.20
2023-05-25T13:47:20.835Z,0.20
2023-05-25T13:49:48.433Z,0.20
2023-05-25T13:52:15.837Z,0.20
2023-05-25T13:54:43.420Z,0.20
2023-05-25T13:57:10.834Z,0.20
2023-05-25T13:59:38.961Z,0.20
2023-05-25T14:02:06.868Z,0.20
2023-05-25T14:04:34.606Z,0.20
2023-05-25T14:07:02.821Z,0.20
2023-05-25T14:09:30.143Z,0.20
2023-05-25T14:11:57.692Z,0.20
2023-05-25T14:14:32.004Z,0.20
2023-05-25T14:17:01.501Z,0.20
2023-05-25T14:19:29.249Z,0.20
2023-05-25T14:22:11.872Z,0.20
2023-05-25T14:24:41.175Z,0.20
2023-05-25T14:27:08.581Z,0.20
2023-05-25T14:29:36.145Z,0.20
2023-05-25T14:32:03.710Z,0.20
2023-05-25T14:34:31.105Z,0.20
2023-05-25T14:36:58.550Z,0.20
2023-05-25T14:39:26.748Z,0.20
2023-05-25T14:41:54.168Z,0.20
2023-05-25T14:44:21.484Z,0.20
2023-05-25T14:46:48.970Z,0.20
2023-05-25T14:49:17.109Z,0.20
2023-05-25T14:51:44.479Z,0.20
2023-05-25T14:54:13.900Z,0.20
2023-05-25T14:56:41.289Z,0.20
2023-05-25T14:59:08.779Z,0.25
2023-05-25T15:01:36.419Z,0.20
2023-05-25T15:04:04.118Z,0.20
2023-05-25T15:06:34.611Z,0.20
2023-05-25T15:09:02.167Z,0.20
2023-05-25T15:11:29.517Z,0.20
2023-05-25T15:13:58.760Z,0.20
2023-05-25T15:16:26.429Z,0.20
2023-05-25T15:18:53.827Z,0.20
2023-05-25T15:21:21.293Z,0.20
2023-05-25T15:23:48.710Z,0.20
2023-05-25T15:26:16.636Z,0.20
2023-05-25T15:28:44.053Z,0.20
2023-05-25T15:31:11.501Z,0.20
2023-05-25T15:33:53.812Z,0.20
2023-05-25T15:36:25.679Z,0.20
2023-05-25T15:38:53.030Z,0.20
2023-05-25T15:41:21.055Z,0.20
2023-05-25T15:43:58.506Z,0.20
2023-05-25T15:46:26.310Z,0.20
2023-05-25T15:48:54.046Z,0.20
2023-05-25T15:51:21.613Z,0.20
2023-05-25T15:53:49.079Z,0.20
2023-05-25T15:56:16.448Z,0.20
2023-05-25T15:58:47.256Z,0.20
2023-05-25T16:01:14.777Z,0.20
2023-05-25T16:03:43.311Z,0.20
2023-05-25T16:06:11.234Z,0.20
2023-05-25T16:08:38.706Z,0.20
2023-05-25T16:11:06.173Z,0.20
2023-05-25T16:13:33.652Z,0.30
2023-05-25T16:16:01.063Z,0.20
2023-05-25T16:18:28.508Z,0.20
2023-05-25T16:20:57.869Z,0.20
2023-05-25T16:23:25.818Z,0.30
2023-05-25T16:25:53.211Z,0.20
2023-05-25T16:28:20.995Z,0.30
2023-05-25T16:30:48.299Z,0.30
2023-05-25T16:33:15.849Z,0.20
2023-05-25T16:35:43.909Z,0.20
2023-05-25T16:38:11.632Z,0.20
2023-05-25T16:40:39.000Z,0.20
2023-05-25T16:43:06.563Z,0.30
2023-05-25T16:45:33.973Z,0.20
2023-05-25T16:48:01.419Z,0.20
2023-05-25T16:50:29.185Z,0.20
2023-05-25T16:52:57.188Z,0.20
2023-05-25T16:55:24.595Z,0.20
2023-05-25T16:57:52.101Z,0.30
2023-05-25T17:00:19.562Z,0.30
2023-05-25T17:02:47.002Z,0.30
2023-05-25T17:05:14.469Z,0.30
2023-05-25T17:07:41.980Z,0.20
2023-05-25T17:10:09.615Z,0.20
2023-05-25T17:12:36.999Z,0.20
2023-05-25T17:15:04.523Z,0.20
2023-05-25T17:17:32.016Z,0.30
2023-05-25T17:19:59.484Z,0.20
2023-05-25T17:22:26.900Z,0.20
2023-05-25T17:24:54.352Z,0.20
2023-05-25T17:27:21.701Z,0.30
2023-05-25T17:29:49.175Z,0.30
2023-05-25T17:32:16.566Z,0.30
2023-05-25T17:34:44.080Z,0.20
2023-05-25T17:37:11.475Z,0.30
2023-05-25T17:39:38.936Z,0.20
2023-05-25T17:42:06.849Z,0.20
2023-05-25T17:44:34.240Z,0.20
2023-05-25T17:47:01.620Z,0.30
2023-05-25T17:49:29.057Z,0.20
2023-05-25T17:51:56.657Z,0.20
2023-05-25T17:54:26.011Z,0.30
2023-05-25T17:56:53.451Z,0.20
2023-05-25T17:59:20.956Z,0.30
2023-05-25T18:01:48.386Z,0.30
2023-05-25T18:04:16.114Z,0.30
2023-05-25T18:06:43.686Z,0.33
2023-05-25T18:09:11.268Z,0.30
2023-05-25T18:11:38.676Z,0.20
2023-05-25T18:14:06.083Z,0.30
2023-05-25T18:16:33.640Z,0.20
2023-05-25T18:19:01.062Z,0.20
2023-05-25T18:21:28.480Z,0.20
2023-05-25T18:23:55.917Z,0.20
2023-05-25T18:26:23.657Z,0.20
2023-05-25T18:28:50.951Z,0.37
2023-05-25T18:31:18.370Z,0.20
2023-05-25T18:33:45.799Z,0.40
2023-05-25T18:36:13.207Z,0.50
2023-05-25T18:38:40.739Z,0.40
2023-05-25T18:41:08.229Z,0.40
2023-05-25T18:43:35.618Z,0.40
2023-05-25T18:46:03.035Z,0.50
2023-05-25T18:48:30.625Z,0.30
2023-05-25T18:50:58.112Z,0.20
2023-05-25T18:53:25.453Z,0.20
2023-05-25T18:55:52.874Z,0.20
2023-05-25T18:58:20.186Z,0.20
2023-05-25T19:00:47.650Z,0.40
2023-05-25T19:03:15.219Z,0.40
2023-05-25T19:05:42.739Z,0.40
2023-05-25T19:08:10.132Z,0.40
2023-05-25T19:10:37.574Z,0.30
2023-05-25T19:13:04.909Z,0.20
2023-05-25T19:15:32.353Z,0.30
2023-05-25T19:17:59.843Z,0.20
2023-05-25T19:20:28.229Z,0.20
2023-05-25T19:22:55.920Z,0.20
2023-05-25T19:25:23.307Z,0.20
2023-05-25T19:27:51.686Z,0.40
2023-05-25T19:30:19.173Z,0.50
2023-05-25T19:32:46.648Z,0.50
2023-05-25T19:35:14.111Z,0.40
2023-05-25T19:37:41.446Z,0.50
2023-05-25T19:40:09.739Z,0.50
2023-05-25T19:42:37.611Z,0.40
2023-05-25T19:45:05.777Z,0.40
2023-05-25T19:47:33.365Z,0.20
2023-05-25T19:50:00.883Z,0.20
2023-05-25T19:52:28.243Z,0.20
2023-05-25T19:54:55.743Z,0.20
2023-05-25T19:57:23.107Z,0.20
2023-05-25T19:59:51.218Z,0.20
2023-05-25T20:02:18.813Z,0.20
2023-05-25T20:04:46.193Z,0.20
2023-05-25T20:07:13.719Z,0.20
2023-05-25T20:09:41.608Z,0.30
2023-05-25T20:12:09.106Z,0.20
2023-05-25T20:14:36.455Z,0.40
2023-05-25T20:17:04.069Z,0.90
2023-05-25T20:19:31.497Z,0.70
2023-05-25T20:22:00.313Z,0.67
2023-05-25T20:24:27.700Z,0.23
2023-05-25T20:26:57.014Z,0.30
2023-05-25T20:29:24.549Z,0.30
2023-05-25T20:31:52.536Z,0.20
2023-05-25T20:34:19.944Z,0.20
2023-05-25T20:36:47.369Z,0.40
2023-05-25T20:39:16.077Z,0.40
2023-05-25T20:41:44.141Z,0.70
2023-05-25T20:44:11.582Z,0.20
2023-05-25T20:46:39.012Z,0.20
2023-05-25T20:49:06.449Z,0.20
2023-05-25T20:51:33.948Z,0.20
2023-05-25T20:54:01.419Z,0.30
2023-05-25T20:56:28.821Z,0.20
2023-05-25T20:58:57.636Z,0.30
2023-05-25T21:01:25.167Z,0.20
2023-05-25T21:03:52.725Z,0.20
2023-05-25T21:06:20.196Z,0.20
2023-05-25T21:08:47.564Z,0.20
2023-05-25T21:11:14.992Z,0.20
2023-05-25T21:13:42.361Z,0.20
2023-05-25T21:16:09.830Z,0.30
2023-05-25T21:18:37.222Z,0.20
2023-05-25T21:21:05.640Z,0.20
2023-05-25T21:23:33.074Z,0.40
2023-05-25T21:26:00.561Z,0.20
2023-05-25T21:28:27.914Z,0.37
2023-05-25T21:30:55.467Z,0.20
2023-05-25T21:33:22.964Z,0.20
2023-05-25T21:35:50.496Z,0.30
2023-05-25T21:38:17.947Z,0.30
2023-05-25T21:40:45.407Z,0.20
2023-05-25T21:43:12.795Z,0.20
2023-05-25T21:45:40.204Z,0.20
2023-05-25T21:48:07.663Z,0.30
2023-05-25T21:50:36.720Z,0.20
2023-05-25T21:53:04.088Z,0.30
2023-05-25T21:55:31.485Z,0.30
2023-05-25T21:57:58.843Z,0.30
2023-05-25T22:00:26.401Z,0.20
2023-05-25T22:02:53.907Z,0.30
2023-05-25T22:05:21.385Z,0.30
2023-05-25T22:07:48.888Z,0.30
2023-05-25T22:10:16.283Z,0.30
2023-05-25T22:12:43.740Z,0.30
2023-05-25T22:15:11.157Z,0.30
2023-05-25T22:17:38.771Z,0.20
2023-05-25T22:20:08.259Z,0.20
2023-05-25T22:22:37.538Z,0.20
2023-05-25T22:25:05.237Z,0.20
2023-05-25T22:27:33.013Z,0.30
2023-05-25T22:30:00.365Z,0.30
2023-05-25T22:32:27.951Z,0.30
2023-05-25T22:34:55.357Z,0.20
2023-05-25T22:37:22.974Z,0.30
2023-05-25T22:39:50.459Z,0.30
2023-05-25T22:42:17.936Z,0.20
2023-05-25T22:44:45.314Z,0.20
2023-05-25T22:47:12.672Z,0.20
2023-05-25T22:49:44.286Z,0.30
2023-05-25T22:52:12.059Z,0.30
2023-05-25T22:54:40.055Z,0.20
2023-05-25T22:57:08.864Z,0.20
2023-05-25T22:59:36.481Z,0.30
2023-05-25T23:02:04.070Z,0.20
2023-05-25T23:04:31.846Z,0.30
2023-05-25T23:06:59.253Z,0.20
2023-05-25T23:09:26.662Z,0.90
2023-05-25T23:11:54.089Z,0.30
2023-05-25T23:14:21.576Z,0.20
2023-05-25T23:16:49.432Z,0.30
2023-05-25T23:19:17.088Z,0.20
2023-05-25T23:21:44.777Z,0.20
2023-05-25T23:24:12.173Z,0.20
2023-05-25T23:26:39.547Z,0.20
2023-05-25T23:29:07.057Z,0.20
2023-05-25T23:31:34.541Z,0.20
2023-05-25T23:34:01.913Z,0.20
2023-05-25T23:36:29.314Z,0.20
2023-05-25T23:38:56.858Z,1.20
2023-05-25T23:41:25.390Z,1.20
2023-05-25T23:43:52.829Z,2.30
2023-05-25T23:46:20.245Z,2.00
2023-05-25T23:48:47.755Z,1.90
2023-05-25T23:51:15.158Z,1.80
2023-05-25T23:53:42.593Z,1.80
2023-05-25T23:56:09.971Z,1.80
2023-05-25T23:58:37.526Z,1.70
